createdAt,value
2018-07-16T00:01:11.842Z,96871.09
2018-07-16T00:03:42.218Z,96869.91
2018-07-16T00:06:11.949Z,96866.97
2018-07-16T00:08:42.003Z,96869.53
2018-07-16T00:11:11.150Z,96874.70
2018-07-16T00:13:40.268Z,96878.18
2018-07-16T00:16:10.736Z,96875.67
2018-07-16T00:18:40.431Z,96873.94
2018-07-16T00:21:09.565Z,96876.09
2018-07-16T00:23:39.825Z,96875.28
2018-07-16T00:26:09.309Z,96874.84
2018-07-16T00:28:38.522Z,96877.02
2018-07-16T00:31:10.034Z,96873.19
2018-07-16T00:33:40.879Z,96875.80
2018-07-16T00:36:10.091Z,96871.14
2018-07-16T00:38:40.486Z,96872.39
2018-07-16T00:41:09.785Z,96868.55
2018-07-16T00:43:39.469Z,96868.13
2018-07-16T00:46:10.143Z,96876.72
2018-07-16T00:48:40.112Z,96874.61
2018-07-16T00:51:09.518Z,96881.08
2018-07-16T00:53:40.490Z,96878.14
2018-07-16T00:56:10.965Z,96879.50
2018-07-16T00:58:40.164Z,96878.72
2018-07-16T01:01:10.199Z,96882.66
2018-07-16T01:03:39.699Z,96879.73
2018-07-16T01:06:08.806Z,96870.00
2018-07-16T01:08:39.325Z,96866.27
2018-07-16T01:11:09.870Z,96873.10
2018-07-16T01:13:39.345Z,96868.43
2018-07-16T01:16:08.653Z,96876.94
2018-07-16T01:18:38.092Z,96882.06
2018-07-16T01:21:07.836Z,96870.95
2018-07-16T01:23:38.413Z,96870.54
2018-07-16T01:26:08.981Z,96864.98
2018-07-16T01:28:39.441Z,96857.70
2018-07-16T01:31:10.255Z,96859.42
2018-07-16T01:33:39.420Z,96852.63
2018-07-16T01:36:08.766Z,96851.40
2018-07-16T01:38:37.820Z,96855.23
2018-07-16T01:41:07.312Z,96846.75
2018-07-16T01:43:37.967Z,96852.74
2018-07-16T01:46:08.529Z,96853.63
2018-07-16T01:48:38.733Z,96843.84
2018-07-16T01:51:09.422Z,96848.51
2018-07-16T01:53:38.548Z,96846.81
2018-07-16T01:56:07.630Z,96846.41
2018-07-16T01:58:38.029Z,96847.69
2018-07-16T02:01:07.515Z,96849.80
2018-07-16T02:03:36.950Z,96846.81
2018-07-16T02:06:07.371Z,96846.41
2018-07-16T02:08:37.726Z,96853.64
2018-07-16T02:11:06.795Z,96856.20
2018-07-16T02:13:37.130Z,96851.96
2018-07-16T02:16:07.448Z,96845.18
2018-07-16T02:18:36.828Z,96846.08
2018-07-16T02:21:07.750Z,96843.16
2018-07-16T02:23:38.324Z,96836.78
2018-07-16T02:26:08.571Z,96835.12
2018-07-16T02:28:39.276Z,96825.77
2018-07-16T02:31:09.086Z,96830.48
2018-07-16T02:33:39.510Z,96824.08
2018-07-16T02:36:08.734Z,96824.10
2018-07-16T02:38:37.869Z,96818.98
2018-07-16T02:41:08.132Z,96817.31
2018-07-16T02:43:38.807Z,96818.98
2018-07-16T02:46:09.111Z,96820.70
2018-07-16T02:48:38.513Z,96833.48
2018-07-16T02:51:07.857Z,96820.71
2018-07-16T02:53:37.025Z,96823.74
2018-07-16T02:56:07.593Z,96820.81
2018-07-16T02:58:37.993Z,96829.42
2018-07-16T03:01:07.990Z,96829.08
2018-07-16T03:03:39.184Z,96824.42
2018-07-16T03:06:08.249Z,96825.30
2018-07-16T03:08:37.672Z,96824.42
2018-07-16T03:11:08.494Z,96822.75
2018-07-16T03:13:37.589Z,96817.64
2018-07-16T03:16:07.453Z,96814.23
2018-07-16T03:18:38.201Z,96808.25
2018-07-16T03:21:09.212Z,96806.57
2018-07-16T03:23:38.409Z,96800.58
2018-07-16T03:26:07.845Z,96804.80
2018-07-16T03:28:38.198Z,96796.26
2018-07-16T03:31:09.211Z,96798.81
2018-07-16T03:33:39.948Z,96792.42
2018-07-16T03:36:10.020Z,96797.14
2018-07-16T03:38:39.141Z,96797.14
2018-07-16T03:41:09.342Z,96795.91
2018-07-16T03:43:38.649Z,96793.75
2018-07-16T03:46:08.441Z,96799.34
2018-07-16T03:48:39.524Z,96799.85
2018-07-16T03:51:09.565Z,96801.55
2018-07-16T03:53:39.009Z,96812.26
2018-07-16T03:56:08.283Z,96813.94
2018-07-16T03:58:37.618Z,96816.94
2018-07-16T04:01:07.235Z,96811.84
2018-07-16T04:03:36.694Z,96809.27
2018-07-16T04:06:05.738Z,96815.20
2018-07-16T04:08:35.739Z,96817.28
2018-07-16T04:11:06.655Z,96819.40
2018-07-16T04:13:37.590Z,96823.63
2018-07-16T04:16:08.324Z,96824.86
2018-07-16T04:18:37.654Z,96829.13
2018-07-16T04:21:06.863Z,96824.42
2018-07-16T04:23:37.432Z,96826.93
2018-07-16T04:26:07.875Z,96829.53
2018-07-16T04:28:38.605Z,96836.34
2018-07-16T04:31:07.623Z,96838.92
2018-07-16T04:33:37.254Z,96835.61
2018-07-16T04:36:07.643Z,96836.45
2018-07-16T04:38:38.244Z,96833.50
2018-07-16T04:41:09.044Z,96832.22
2018-07-16T04:43:38.551Z,96831.38
2018-07-16T04:46:07.887Z,96835.22
2018-07-16T04:48:37.491Z,96840.70
2018-07-16T04:51:08.705Z,96833.41
2018-07-16T04:53:37.813Z,96830.81
2018-07-16T04:56:06.977Z,96837.09
2018-07-16T04:58:36.026Z,96839.96
2018-07-16T05:01:06.320Z,96840.23
2018-07-16T05:03:35.825Z,96843.52
2018-07-16T05:06:06.539Z,96844.28
2018-07-16T05:08:36.734Z,96847.52
2018-07-16T05:11:06.798Z,96848.13
2018-07-16T05:13:36.841Z,96843.23
2018-07-16T05:16:07.437Z,96846.09
2018-07-16T05:18:37.409Z,96849.34
2018-07-16T05:21:06.517Z,96859.61
2018-07-16T05:23:36.005Z,96863.88
2018-07-16T05:26:07.003Z,96870.72
2018-07-16T05:28:36.329Z,96876.69
2018-07-16T05:31:06.761Z,96869.41
2018-07-16T05:33:37.420Z,96874.95
2018-07-16T05:36:06.829Z,96867.27
2018-07-16T05:51:30.776Z,96870.28
2018-07-16T05:54:01.315Z,96866.84
2018-07-16T05:56:32.047Z,96866.84
2018-07-16T05:59:02.469Z,96861.27
2018-07-16T06:01:31.593Z,96858.66
2018-07-16T06:04:00.935Z,96857.77
2018-07-16T06:06:31.768Z,96850.06
2018-07-16T06:09:01.355Z,96846.61
2018-07-16T06:11:30.622Z,96845.77
2018-07-16T06:14:01.119Z,96837.63
2018-07-16T06:16:30.438Z,96837.16
2018-07-16T06:19:01.203Z,96835.06
2018-07-16T06:21:32.430Z,96837.16
2018-07-16T06:24:02.383Z,96832.89
2018-07-16T06:26:32.972Z,96838.91
2018-07-16T06:29:03.068Z,96835.52
2018-07-16T06:31:33.829Z,96837.20
2018-07-16T06:34:02.851Z,96836.37
2018-07-16T06:36:32.355Z,96834.69
2018-07-16T06:39:03.238Z,96844.05
2018-07-16T06:41:32.718Z,96834.69
2018-07-16T06:44:03.072Z,96842.38
2018-07-16T06:46:32.478Z,96844.05
2018-07-16T06:49:01.796Z,96842.31
2018-07-16T06:51:32.142Z,96848.27
2018-07-16T06:54:02.643Z,96844.86
2018-07-16T06:56:31.674Z,96843.97
2018-07-16T06:59:02.355Z,96844.80
2018-07-16T07:01:33.005Z,96847.36
2018-07-16T07:04:02.174Z,96843.52
2018-07-16T07:06:32.329Z,96842.69
2018-07-16T07:09:03.858Z,96843.06
2018-07-16T07:11:34.701Z,96849.04
2018-07-16T07:14:05.074Z,96851.52
2018-07-16T07:16:34.409Z,96851.52
2018-07-16T07:19:04.578Z,96846.76
2018-07-16T07:21:35.596Z,96844.59
2018-07-16T07:24:05.227Z,96835.63
2018-07-16T07:26:36.500Z,96840.35
2018-07-16T07:42:01.903Z,96839.52
2018-07-16T07:44:33.244Z,96839.97
2018-07-16T07:47:04.371Z,96837.98
2018-07-16T07:49:35.177Z,96833.08
2018-07-16T07:52:04.538Z,96837.89
2018-07-16T07:54:33.818Z,96836.85
2018-07-16T07:57:04.215Z,96836.24
2018-07-16T07:59:33.448Z,96830.99
2018-07-16T08:02:03.751Z,96836.80
2018-07-16T08:04:33.199Z,96825.94
2018-07-16T08:07:08.375Z,96825.78
2018-07-16T08:09:38.860Z,96832.47
2018-07-16T08:12:08.757Z,96831.07
2018-07-16T08:14:38.912Z,96821.91
2018-07-16T08:17:09.136Z,96819.21
2018-07-16T08:19:38.517Z,96815.75
2018-07-16T08:22:08.734Z,96812.48
2018-07-16T08:24:37.753Z,96823.33
2018-07-16T08:27:07.876Z,96822.27
2018-07-16T08:29:37.823Z,96817.81
2018-07-16T08:32:08.092Z,96822.86
2018-07-16T08:34:39.007Z,96815.22
2018-07-16T08:37:08.149Z,96815.30
2018-07-16T08:39:38.575Z,96810.09
2018-07-16T08:42:08.153Z,96813.72
2018-07-16T08:44:38.558Z,96813.96
2018-07-16T08:47:07.611Z,96809.39
2018-07-16T08:49:38.805Z,96808.37
2018-07-16T08:52:09.612Z,96811.61
2018-07-16T08:54:40.223Z,96807.25
2018-07-16T08:57:10.513Z,96811.99
2018-07-16T08:59:40.742Z,96808.06
2018-07-16T09:02:12.021Z,96814.66
2018-07-16T09:04:42.667Z,96810.07
2018-07-16T09:07:13.096Z,96805.72
2018-07-16T09:09:43.337Z,96798.56
2018-07-16T09:12:13.963Z,96796.67
2018-07-16T09:14:44.326Z,96793.00
2018-07-16T09:17:14.825Z,96793.13
2018-07-16T09:19:45.140Z,96787.69
2018-07-16T09:22:15.134Z,96794.82
2018-07-16T09:24:45.890Z,96793.83
2018-07-16T09:27:16.563Z,96792.73
2018-07-16T09:29:47.324Z,96788.67
2018-07-16T09:32:18.373Z,96784.69
2018-07-16T09:34:48.965Z,96785.37
2018-07-16T09:37:19.380Z,96780.88
2018-07-16T09:39:49.846Z,96778.80
2018-07-16T09:42:20.556Z,96772.66
2018-07-16T09:44:50.703Z,96775.91
2018-07-16T09:47:21.169Z,96775.30
2018-07-16T09:49:52.350Z,96776.50
2018-07-16T09:52:22.744Z,96777.23
2018-07-16T09:54:53.365Z,96777.30
2018-07-16T09:57:23.642Z,96769.93
2018-07-16T09:59:54.321Z,96772.39
2018-07-16T10:02:24.743Z,96773.59
2018-07-16T10:04:55.462Z,96774.59
2018-07-16T10:07:25.817Z,96776.00
2018-07-16T10:09:56.447Z,96774.99
2018-07-16T10:12:26.863Z,96764.87
2018-07-16T10:14:57.200Z,96763.77
2018-07-16T10:17:27.581Z,96760.94
2018-07-16T10:19:58.185Z,96749.42
2018-07-16T10:22:29.188Z,96758.08
2018-07-16T10:25:00.267Z,96754.70
2018-07-16T10:27:31.395Z,96757.35
2018-07-16T10:30:01.808Z,96761.52
2018-07-16T10:32:31.853Z,96754.52
2018-07-16T10:35:01.870Z,96752.89
2018-07-16T10:37:30.961Z,96750.16
2018-07-16T10:40:00.433Z,96748.11
2018-07-16T10:42:30.370Z,96745.63
2018-07-16T10:44:59.827Z,96745.11
2018-07-16T10:47:29.386Z,96749.25
2018-07-16T10:49:58.462Z,96746.29
2018-07-16T10:52:27.578Z,96743.31
2018-07-16T10:54:56.987Z,96746.45
2018-07-16T10:57:26.210Z,96740.78
2018-07-16T10:59:56.446Z,96744.08
2018-07-16T11:02:26.865Z,96738.92
2018-07-16T11:04:56.346Z,96735.67
2018-07-16T11:07:27.098Z,96726.60
2018-07-16T11:09:56.229Z,96728.05
2018-07-16T11:12:25.719Z,96726.80
2018-07-16T11:14:55.077Z,96725.32
2018-07-16T11:17:24.266Z,96713.73
2018-07-16T11:19:53.319Z,96709.02
2018-07-16T11:22:22.865Z,96704.25
2018-07-16T11:24:53.704Z,96709.02
2018-07-16T11:27:23.206Z,96703.44
2018-07-16T11:29:53.431Z,96707.32
2018-07-16T11:32:23.857Z,96707.13
2018-07-16T11:34:55.023Z,96700.65
2018-07-16T11:37:25.600Z,96699.45
2018-07-16T11:39:55.539Z,96693.23
2018-07-16T11:42:26.470Z,96688.79
2018-07-16T11:44:55.706Z,96685.17
2018-07-16T11:47:25.744Z,96680.59
2018-07-16T11:49:54.840Z,96679.77
2018-07-16T11:52:24.592Z,96678.09
2018-07-16T11:54:53.670Z,96676.78
2018-07-16T11:57:23.342Z,96670.23
2018-07-16T11:59:53.292Z,96659.18
2018-07-16T12:02:22.747Z,96663.25
2018-07-16T12:04:52.395Z,96663.48
2018-07-16T12:07:21.435Z,96661.33
2018-07-16T12:09:50.779Z,96649.35
2018-07-16T12:12:20.045Z,96641.69
2018-07-16T12:14:49.069Z,96640.31
2018-07-16T12:17:19.076Z,96635.13
2018-07-16T12:19:48.189Z,96628.55
2018-07-16T12:22:19.308Z,96634.96
2018-07-16T12:24:49.267Z,96628.11
2018-07-16T12:27:19.996Z,96626.28
2018-07-16T12:29:49.492Z,96627.13
2018-07-16T12:32:20.046Z,96614.53
2018-07-16T12:34:49.236Z,96619.09
2018-07-16T12:37:19.158Z,96618.58
2018-07-16T12:39:48.253Z,96612.48
2018-07-16T12:42:18.962Z,96602.76
2018-07-16T12:44:49.317Z,96598.36
2018-07-16T12:47:19.991Z,96596.49
2018-07-16T12:49:49.970Z,96598.52
2018-07-16T12:52:21.040Z,96593.18
2018-07-16T12:54:51.285Z,96588.59
2018-07-16T12:57:20.772Z,96584.97
2018-07-16T12:59:51.243Z,96578.92
2018-07-16T13:02:21.695Z,96568.62
2018-07-16T13:04:50.709Z,96571.44
2018-07-16T13:07:19.809Z,96561.93
2018-07-16T13:09:50.205Z,96564.53
2018-07-16T13:12:19.833Z,96555.08
2018-07-16T13:14:48.894Z,96550.62
2018-07-16T13:17:19.797Z,96548.50
2018-07-16T13:19:48.948Z,96546.96
2018-07-16T13:22:18.203Z,96539.34
2018-07-16T13:24:48.762Z,96546.57
2018-07-16T13:27:19.105Z,96536.78
2018-07-16T13:29:49.616Z,96540.45
2018-07-16T13:32:19.480Z,96546.57
2018-07-16T13:34:50.099Z,96540.06
2018-07-16T13:37:20.416Z,96538.27
2018-07-16T13:39:50.173Z,96546.13
2018-07-16T13:42:19.290Z,96536.38
2018-07-16T13:44:49.041Z,96540.91
2018-07-16T13:47:19.045Z,96541.84
2018-07-16T13:49:48.614Z,96534.84
2018-07-16T13:52:18.291Z,96536.78
2018-07-16T13:54:48.304Z,96535.83
2018-07-16T13:57:19.016Z,96530.23
2018-07-16T13:59:48.458Z,96528.36
2018-07-16T14:02:17.510Z,96520.02
2018-07-16T14:04:47.368Z,96523.27
2018-07-16T14:07:17.731Z,96522.21
2018-07-16T14:09:46.860Z,96522.22
2018-07-16T14:12:16.371Z,96523.14
2018-07-16T14:14:46.436Z,96519.36
2018-07-16T14:17:16.549Z,96528.70
2018-07-16T14:19:47.069Z,96521.95
2018-07-16T14:22:16.454Z,96529.86
2018-07-16T14:24:46.356Z,96527.80
2018-07-16T14:27:16.951Z,96522.75
2018-07-16T14:29:47.304Z,96532.67
2018-07-16T14:32:17.829Z,96535.81
2018-07-16T14:34:48.206Z,96538.44
2018-07-16T14:37:17.493Z,96537.89
2018-07-16T14:39:47.154Z,96536.59
2018-07-16T14:45:03.000Z,96530.79
2018-07-16T14:47:33.031Z,96533.74
2018-07-16T14:50:03.141Z,96528.89
2018-07-16T14:52:32.772Z,96531.69
2018-07-16T14:55:02.911Z,96533.37
2018-07-16T14:57:33.115Z,96531.86
2018-07-16T15:00:03.160Z,96529.81
2018-07-16T15:02:33.332Z,96530.19
2018-07-16T15:05:03.597Z,96522.23
2018-07-16T15:07:33.704Z,96524.45
2018-07-16T15:10:03.796Z,96526.98
2018-07-16T15:12:33.989Z,96532.99
2018-07-16T15:15:04.059Z,96529.89
2018-07-16T15:17:34.189Z,96524.45
2018-07-16T15:20:04.027Z,96519.11
2018-07-16T15:22:34.012Z,96519.77
2018-07-16T15:25:04.003Z,96523.93
2018-07-16T15:27:35.836Z,96522.23
2018-07-16T15:30:05.837Z,96523.75
2018-07-16T15:32:35.886Z,96524.94
2018-07-16T15:35:05.927Z,96513.95
2018-07-16T15:37:36.020Z,96522.14
2018-07-16T15:40:05.397Z,96512.33
2018-07-16T15:42:35.471Z,96515.51
2018-07-16T15:45:05.616Z,96513.20
2018-07-16T15:47:35.733Z,96516.93
2018-07-16T15:50:05.077Z,96514.03
2018-07-16T15:52:34.442Z,96516.29
2018-07-16T15:55:03.872Z,96516.52
2018-07-16T15:57:33.209Z,96509.87
2018-07-16T16:00:02.799Z,96510.33
2018-07-16T16:02:32.961Z,96511.80
2018-07-16T16:05:02.740Z,96506.06
2018-07-16T16:07:32.838Z,96510.13
2018-07-16T16:10:04.420Z,96500.67
2018-07-16T16:12:33.913Z,96504.77
2018-07-16T16:15:03.411Z,96505.68
2018-07-16T16:17:32.734Z,96499.36
2018-07-16T16:20:01.930Z,96495.66
2018-07-16T16:22:31.511Z,96487.36
2018-07-16T16:25:00.809Z,96486.70
2018-07-16T16:27:30.526Z,96489.27
2018-07-16T16:30:01.215Z,96492.02
2018-07-16T16:32:30.568Z,96486.14
2018-07-16T16:35:00.682Z,96482.25
2018-07-16T16:37:30.770Z,96479.81
2018-07-16T16:40:02.889Z,96465.56
2018-07-16T16:42:33.045Z,96460.40
2018-07-16T16:45:03.076Z,96464.32
2018-07-16T16:47:32.964Z,96460.16
2018-07-16T16:50:03.016Z,96457.13
2018-07-16T16:52:32.284Z,96459.33
2018-07-16T16:55:02.013Z,96455.72
2018-07-16T16:57:32.241Z,96450.18
2018-07-16T17:00:01.596Z,96454.96
2018-07-16T17:02:31.198Z,96453.67
2018-07-16T17:05:01.531Z,96459.74
2018-07-16T17:07:31.197Z,96459.91
2018-07-16T17:10:01.321Z,96462.90
2018-07-16T17:12:30.834Z,96460.56
2018-07-16T17:15:00.187Z,96454.38
2018-07-16T17:17:29.462Z,96451.79
2018-07-16T17:19:59.487Z,96434.58
2018-07-16T17:22:29.101Z,96441.28
2018-07-16T17:24:58.995Z,96439.59
2018-07-16T17:27:28.992Z,96442.34
2018-07-16T17:29:58.340Z,96439.63
2018-07-16T17:32:27.723Z,96437.88
2018-07-16T17:34:57.151Z,96443.80
2018-07-16T17:37:27.018Z,96441.43
2018-07-16T17:39:56.470Z,96444.72
2018-07-16T17:42:25.746Z,96455.17
2018-07-16T17:44:55.891Z,96460.43
2018-07-16T17:47:26.106Z,96467.48
2018-07-16T17:49:56.085Z,96474.48
2018-07-16T17:52:25.454Z,96469.29
2018-07-16T17:54:55.132Z,96475.02
2018-07-16T17:57:24.440Z,96472.86
2018-07-16T17:59:53.766Z,96479.61
2018-07-16T18:02:23.925Z,96482.50
2018-07-16T18:04:54.158Z,96485.80
2018-07-16T18:07:23.445Z,96488.36
2018-07-16T18:09:53.528Z,96491.22
2018-07-16T18:12:23.301Z,96491.88
2018-07-16T18:14:53.176Z,96489.97
2018-07-16T18:17:22.489Z,96495.80
2018-07-16T18:19:52.419Z,96491.66
2018-07-16T18:22:22.547Z,96490.27
2018-07-16T18:24:52.696Z,96490.38
2018-07-16T18:27:22.725Z,96495.36
2018-07-16T18:29:52.039Z,96493.36
2018-07-16T18:32:21.388Z,96501.30
2018-07-16T18:34:50.942Z,96496.34
2018-07-16T18:37:20.287Z,96507.71
2018-07-16T18:39:50.548Z,96508.37
2018-07-16T18:42:20.749Z,96515.48
2018-07-16T18:44:50.197Z,96514.30
2018-07-16T18:47:19.688Z,96517.53
2018-07-16T18:49:49.722Z,96514.68
2018-07-16T18:52:19.122Z,96509.80
2018-07-16T18:54:49.232Z,96521.15
2018-07-16T18:57:20.695Z,96523.09
2018-07-16T18:59:50.784Z,96516.50
2018-07-16T19:02:20.869Z,96520.74
2018-07-16T19:04:50.928Z,96532.16
2018-07-16T19:07:23.047Z,96534.91
2018-07-16T19:09:53.169Z,96533.41
2018-07-16T19:12:22.498Z,96532.29
2018-07-16T19:14:52.310Z,96541.02
2018-07-16T19:17:22.590Z,96537.44
2018-07-16T19:19:52.683Z,96537.67
2018-07-16T19:22:22.059Z,96537.02
2018-07-16T19:24:52.308Z,96537.66
2018-07-16T19:27:22.216Z,96544.33
2018-07-16T19:29:51.615Z,96553.27
2018-07-16T19:32:21.238Z,96548.39
2018-07-16T19:34:51.408Z,96553.39
2018-07-16T19:37:20.695Z,96553.36
2018-07-16T19:39:50.036Z,96557.94
2018-07-16T19:42:19.325Z,96566.77
2018-07-16T19:44:48.623Z,96569.97
2018-07-16T19:47:17.966Z,96570.59
2018-07-16T19:49:48.099Z,96565.64
2018-07-16T19:52:18.251Z,96552.88
2018-07-16T19:54:47.981Z,96559.55
2018-07-16T19:57:19.157Z,96561.05
2018-07-16T19:59:48.854Z,96562.09
2018-07-16T20:02:18.940Z,96564.44
2018-07-16T20:04:48.292Z,96556.41
2018-07-16T20:07:18.284Z,96556.58
2018-07-16T20:09:47.555Z,96559.30
2018-07-16T20:12:27.541Z,96562.11
2018-07-16T20:14:58.088Z,96569.16
2018-07-16T20:17:27.899Z,96570.72
2018-07-16T20:19:58.969Z,96569.67
2018-07-16T20:22:29.459Z,96569.92
2018-07-16T20:24:59.353Z,96577.75
2018-07-16T20:27:29.009Z,96576.22
2018-07-16T20:29:58.855Z,96574.73
2018-07-16T20:32:28.989Z,96578.39
2018-07-16T20:34:59.104Z,96579.01
2018-07-16T20:37:28.435Z,96575.36
2018-07-16T20:39:58.470Z,96585.83
2018-07-16T20:42:28.683Z,96576.03
2018-07-16T20:44:58.797Z,96582.95
2018-07-16T20:47:29.191Z,96584.02
2018-07-16T20:49:59.056Z,96592.33
2018-07-16T20:52:28.683Z,96590.73
2018-07-16T20:54:58.432Z,96588.26
2018-07-16T20:57:28.164Z,96592.63
2018-07-16T20:59:58.253Z,96590.20
2018-07-16T21:02:28.411Z,96589.56
2018-07-16T21:04:57.746Z,96593.11
2018-07-16T21:07:27.089Z,96588.06
2018-07-16T21:09:56.791Z,96594.17
2018-07-16T21:12:26.545Z,96592.45
2018-07-16T21:14:56.073Z,96588.64
2018-07-16T21:17:26.251Z,96585.37
2018-07-16T21:19:55.663Z,96586.02
2018-07-16T21:22:25.817Z,96593.87
2018-07-16T21:24:55.034Z,96588.84
2018-07-16T21:27:24.899Z,96586.36
2018-07-16T21:29:55.099Z,96585.56
2018-07-16T21:32:24.564Z,96589.03
2018-07-16T21:34:53.859Z,96592.95
2018-07-16T21:37:24.097Z,96595.13
2018-07-16T21:39:54.199Z,96595.23
2018-07-16T21:42:24.330Z,96592.72
2018-07-16T21:44:54.340Z,96595.81
2018-07-16T21:47:23.638Z,96597.23
2018-07-16T21:49:52.956Z,96593.05
2018-07-16T21:52:23.151Z,96595.77
2018-07-16T21:54:52.638Z,96601.09
2018-07-16T21:57:22.320Z,96607.15
2018-07-16T21:59:52.189Z,96610.67
2018-07-16T22:02:22.513Z,96609.86
2018-07-16T22:04:51.898Z,96612.52
2018-07-16T22:07:21.195Z,96620.31
2018-07-16T22:09:51.582Z,96620.83
2018-07-16T22:12:21.872Z,96619.73
2018-07-16T22:14:51.694Z,96625.81
2018-07-16T22:17:21.579Z,96625.98
2018-07-16T22:19:51.526Z,96626.51
2018-07-16T22:22:20.919Z,96632.11
2018-07-16T22:24:50.843Z,96634.77
2018-07-16T22:27:20.961Z,96640.70
2018-07-16T22:29:51.021Z,96639.03
2018-07-16T22:32:21.246Z,96637.41
2018-07-16T22:34:50.683Z,96635.70
2018-07-16T22:37:20.243Z,96638.27
2018-07-16T22:39:49.681Z,96644.43
2018-07-16T22:42:19.941Z,96643.81
2018-07-16T22:44:50.014Z,96649.38
2018-07-16T22:47:19.352Z,96653.77
2018-07-16T22:49:49.554Z,96657.28
2018-07-16T22:52:19.640Z,96650.98
2018-07-16T22:54:49.342Z,96657.13
2018-07-16T22:57:18.726Z,96662.38
2018-07-16T22:59:49.039Z,96655.53
2018-07-16T23:02:19.486Z,96657.20
2018-07-16T23:04:49.632Z,96653.75
2018-07-16T23:07:19.008Z,96661.09
2018-07-16T23:09:48.386Z,96665.53
2018-07-16T23:12:18.438Z,96666.89
2018-07-16T23:14:48.653Z,96673.37
2018-07-16T23:17:18.121Z,96675.97
2018-07-16T23:19:48.362Z,96670.92
2018-07-16T23:22:18.480Z,96679.19
2018-07-16T23:24:48.934Z,96671.56
2018-07-16T23:27:19.448Z,96671.75
2018-07-16T23:29:49.414Z,96674.38
2018-07-16T23:32:19.636Z,96680.86
2018-07-16T23:34:50.027Z,96680.50
2018-07-16T23:37:19.680Z,96687.37
2018-07-16T23:39:49.116Z,96690.00
2018-07-16T23:42:18.552Z,96684.91
2018-07-16T23:44:48.113Z,96683.30
2018-07-16T23:47:17.508Z,96682.64
2018-07-16T23:49:46.938Z,96682.22
2018-07-16T23:52:16.342Z,96680.48
2018-07-16T23:54:45.767Z,96674.63
2018-07-16T23:57:15.328Z,96674.23
2018-07-16T23:59:44.692Z,96668.30
